Terminal Aerodrome Forecast
Issued by NWS

Home | Current Version | Previous Version | Text Only | Print | Product List | Glossary Off
Versions: 1 2 3 4 5 6 7 8 9 10 11 12 13 14 15 16 17 18 19 20 21

502
FTUS43 KTOP 190520
TAFMHK
TAF
KMHK 190520Z 1906/2006 00000KT P6SM SCT250
     FM191100 20003KT 3SM BR BKN035
     FM191400 18003KT 2SM BR OVC009
     FM191600 18009KT 4SM BR BKN013
     FM191900 18013KT P6SM SCT025
     FM200100 17010KT 4SM BR OVC011=

USA.gov is the U.S. government's official web portal to all federal, state and local government web resources and services.